createdAt,value
2017-09-19T00:00:38.621Z,1002.9
2017-09-19T00:01:40.015Z,1002.9
2017-09-19T00:02:41.402Z,1002.9
2017-09-19T00:03:42.790Z,1002.9
2017-09-19T00:04:44.180Z,1002.9
2017-09-19T00:05:45.583Z,1002.9
2017-09-19T00:06:46.985Z,1002.9
2017-09-19T00:07:48.381Z,1002.8
2017-09-19T00:08:49.769Z,1002.9
2017-09-19T00:09:51.159Z,1002.9
2017-09-19T00:10:52.549Z,1002.9
2017-09-19T00:11:53.934Z,1002.9
2017-09-19T00:12:55.321Z,1002.9
2017-09-19T00:13:56.709Z,1002.9
2017-09-19T00:14:58.099Z,1002.8
2017-09-19T00:15:59.487Z,1002.8
2017-09-19T00:17:00.877Z,1002.8
2017-09-19T00:18:02.262Z,1002.8
2017-09-19T00:19:03.651Z,1002.9
2017-09-19T00:20:05.037Z,1002.9
2017-09-19T00:21:06.426Z,1002.9
2017-09-19T00:22:07.811Z,1002.9
2017-09-19T00:23:09.201Z,1002.9
2017-09-19T00:24:10.592Z,1002.9
2017-09-19T00:25:11.978Z,1002.9
2017-09-19T00:26:13.367Z,1002.9
2017-09-19T00:27:14.751Z,1002.9
2017-09-19T00:28:16.140Z,1002.9
2017-09-19T00:29:17.530Z,1002.9
2017-09-19T00:30:18.919Z,1002.9
2017-09-19T00:31:20.308Z,1002.9
2017-09-19T00:32:21.697Z,1002.9
2017-09-19T00:33:23.086Z,1002.9
2017-09-19T00:34:24.476Z,1002.9
2017-09-19T00:35:25.862Z,1002.9
2017-09-19T00:36:27.250Z,1002.9
2017-09-19T00:37:28.641Z,1002.9
2017-09-19T00:38:30.029Z,1002.9
2017-09-19T00:39:31.419Z,1002.9
2017-09-19T00:40:32.808Z,1002.9
2017-09-19T00:41:34.194Z,1002.9
2017-09-19T00:42:35.583Z,1002.9
2017-09-19T00:43:36.974Z,1002.9
2017-09-19T00:44:38.367Z,1002.8
2017-09-19T00:45:39.755Z,1002.8
2017-09-19T00:46:41.142Z,1002.8
2017-09-19T00:47:42.527Z,1002.8
2017-09-19T00:48:43.916Z,1002.8
2017-09-19T00:49:45.303Z,1002.8
2017-09-19T00:50:46.695Z,1002.8
2017-09-19T00:51:48.083Z,1002.9
2017-09-19T00:52:49.477Z,1002.8
2017-09-19T00:53:50.861Z,1002.8
2017-09-19T00:54:52.254Z,1002.8
2017-09-19T00:55:53.638Z,1002.9
2017-09-19T00:56:55.022Z,1002.9
2017-09-19T00:57:56.409Z,1002.9
2017-09-19T00:58:57.808Z,1002.9
2017-09-19T00:59:59.198Z,1002.9
2017-09-19T01:01:00.582Z,1002.9
2017-09-19T01:02:01.971Z,1002.9
2017-09-19T01:03:03.360Z,1002.8
2017-09-19T01:04:04.748Z,1002.8
2017-09-19T01:05:06.138Z,1002.8
2017-09-19T01:06:07.527Z,1002.9
2017-09-19T01:07:08.915Z,1002.8
2017-09-19T01:08:10.304Z,1002.8
2017-09-19T01:09:11.690Z,1002.8
2017-09-19T01:10:13.077Z,1002.8
2017-09-19T01:11:14.463Z,1002.8
2017-09-19T01:12:15.856Z,1002.8
2017-09-19T01:13:17.242Z,1002.8
2017-09-19T01:14:18.632Z,1002.8
2017-09-19T01:15:20.021Z,1002.8
2017-09-19T01:16:21.410Z,1002.8
2017-09-19T01:17:22.796Z,1002.7
2017-09-19T01:18:24.183Z,1002.8
2017-09-19T01:19:25.573Z,1002.8
2017-09-19T01:20:26.965Z,1002.7
2017-09-19T01:21:28.352Z,1002.7
2017-09-19T01:22:29.740Z,1002.7
2017-09-19T01:23:31.128Z,1002.7
2017-09-19T01:24:32.517Z,1002.7
2017-09-19T01:25:33.906Z,1002.7
2017-09-19T01:26:35.293Z,1002.8
2017-09-19T01:27:36.682Z,1002.7
2017-09-19T01:28:38.072Z,1002.7
2017-09-19T01:29:39.457Z,1002.7
2017-09-19T01:30:40.850Z,1002.7
2017-09-19T01:31:42.236Z,1002.7
2017-09-19T01:32:43.624Z,1002.7
2017-09-19T01:33:45.011Z,1002.7
2017-09-19T01:34:46.402Z,1002.7
2017-09-19T01:35:47.792Z,1002.7
2017-09-19T01:36:49.179Z,1002.7
2017-09-19T01:37:50.566Z,1002.6
2017-09-19T01:38:51.951Z,1002.6
2017-09-19T01:39:53.341Z,1002.7
2017-09-19T01:40:54.739Z,1002.7
2017-09-19T01:41:56.121Z,1002.7
2017-09-19T01:42:57.512Z,1002.7
2017-09-19T01:43:58.896Z,1002.7
2017-09-19T01:45:00.283Z,1002.7
2017-09-19T01:46:01.671Z,1002.8
2017-09-19T01:47:03.057Z,1002.7
2017-09-19T01:48:04.447Z,1002.7
2017-09-19T01:49:05.837Z,1002.7
2017-09-19T01:50:07.227Z,1002.8
2017-09-19T01:51:08.614Z,1002.7
2017-09-19T01:52:10.074Z,1002.7
2017-09-19T01:53:11.462Z,1002.7
2017-09-19T01:54:12.853Z,1002.7
2017-09-19T01:55:14.243Z,1002.7
2017-09-19T01:56:15.632Z,1002.7
2017-09-19T01:57:17.041Z,1002.7
2017-09-19T01:58:18.431Z,1002.7
2017-09-19T01:59:19.818Z,1002.7
2017-09-19T02:00:21.206Z,1002.7
2017-09-19T02:01:22.593Z,1002.7
2017-09-19T02:02:23.982Z,1002.7
2017-09-19T02:03:25.374Z,1002.7
2017-09-19T02:04:26.764Z,1002.7
2017-09-19T02:05:28.149Z,1002.7
2017-09-19T02:06:29.550Z,1002.7
2017-09-19T02:07:30.919Z,1002.7
2017-09-19T02:08:32.311Z,1002.7
2017-09-19T02:09:33.704Z,1002.7
2017-09-19T02:10:35.090Z,1002.7
2017-09-19T02:11:36.482Z,1002.7
2017-09-19T02:12:37.870Z,1002.7
2017-09-19T02:13:39.258Z,1002.7
2017-09-19T02:14:40.649Z,1002.7
2017-09-19T02:15:42.035Z,1002.7
2017-09-19T02:16:43.422Z,1002.7
2017-09-19T02:17:44.814Z,1002.6
2017-09-19T02:18:46.206Z,1002.6
2017-09-19T02:19:47.592Z,1002.6
2017-09-19T02:20:49.002Z,1002.6
2017-09-19T02:21:50.366Z,1002.7
2017-09-19T02:22:51.764Z,1002.6
2017-09-19T02:23:53.151Z,1002.6
2017-09-19T02:24:54.539Z,1002.6
2017-09-19T02:25:55.931Z,1002.7
2017-09-19T02:26:57.316Z,1002.7
2017-09-19T02:27:58.707Z,1002.7
2017-09-19T02:29:00.093Z,1002.6
2017-09-19T02:30:01.481Z,1002.7
2017-09-19T02:31:02.876Z,1002.6
2017-09-19T02:32:04.260Z,1002.6
2017-09-19T02:33:05.649Z,1002.6
2017-09-19T02:34:07.035Z,1002.6
2017-09-19T02:35:08.422Z,1002.6
2017-09-19T02:36:09.810Z,1002.6
2017-09-19T02:37:11.199Z,1002.5
2017-09-19T02:38:12.590Z,1002.6
2017-09-19T02:39:13.980Z,1002.6
2017-09-19T02:40:15.370Z,1002.6
2017-09-19T02:41:16.758Z,1002.6
2017-09-19T02:42:18.145Z,1002.6
2017-09-19T02:43:19.545Z,1002.6
2017-09-19T02:44:20.938Z,1002.6
2017-09-19T02:45:22.327Z,1002.6
2017-09-19T02:46:23.714Z,1002.6
2017-09-19T02:47:25.106Z,1002.5
2017-09-19T02:48:26.492Z,1002.6
2017-09-19T02:49:27.878Z,1002.6
2017-09-19T02:50:29.268Z,1002.5
2017-09-19T02:51:30.655Z,1002.6
2017-09-19T02:52:32.044Z,1002.5
2017-09-19T02:53:33.435Z,1002.5
2017-09-19T02:54:34.825Z,1002.5
2017-09-19T02:55:36.212Z,1002.6
2017-09-19T02:56:37.599Z,1002.6
2017-09-19T02:57:38.985Z,1002.6
2017-09-19T02:58:40.375Z,1002.6
2017-09-19T02:59:41.765Z,1002.6
2017-09-19T03:00:43.153Z,1002.6
2017-09-19T03:01:44.545Z,1002.6
2017-09-19T03:02:45.930Z,1002.6
2017-09-19T03:03:47.322Z,1002.6
2017-09-19T03:04:48.709Z,1002.6
2017-09-19T03:05:50.096Z,1002.6
2017-09-19T03:06:51.486Z,1002.6
2017-09-19T03:07:52.876Z,1002.6
2017-09-19T03:08:54.264Z,1002.6
2017-09-19T03:09:55.652Z,1002.7
2017-09-19T03:10:57.036Z,1002.7
2017-09-19T03:11:58.427Z,1002.7
2017-09-19T03:12:59.814Z,1002.6
2017-09-19T03:14:01.204Z,1002.6
2017-09-19T03:15:02.594Z,1002.7
2017-09-19T03:16:03.986Z,1002.7
2017-09-19T03:17:05.371Z,1002.7
2017-09-19T03:18:06.758Z,1002.6
2017-09-19T03:19:08.146Z,1002.6
2017-09-19T03:20:09.535Z,1002.6
2017-09-19T03:21:10.921Z,1002.7
2017-09-19T03:22:12.310Z,1002.6
2017-09-19T03:23:13.699Z,1002.6
2017-09-19T03:24:15.084Z,1002.7
2017-09-19T03:25:16.475Z,1002.6
2017-09-19T03:26:17.864Z,1002.6
2017-09-19T03:27:19.251Z,1002.7
2017-09-19T03:28:20.638Z,1002.6
2017-09-19T03:29:22.028Z,1002.6
2017-09-19T03:30:23.423Z,1002.6
2017-09-19T03:31:24.805Z,1002.6
2017-09-19T03:32:26.193Z,1002.6
2017-09-19T03:33:27.579Z,1002.6
2017-09-19T03:34:28.973Z,1002.6
2017-09-19T03:35:30.414Z,1002.6
2017-09-19T03:36:31.807Z,1002.6
2017-09-19T03:37:33.207Z,1002.6
2017-09-19T03:38:34.594Z,1002.6
2017-09-19T03:39:35.981Z,1002.6
2017-09-19T03:40:37.369Z,1002.6
2017-09-19T03:41:38.758Z,1002.6
2017-09-19T03:42:40.148Z,1002.6
2017-09-19T03:43:41.540Z,1002.7
2017-09-19T03:44:42.930Z,1002.6
2017-09-19T03:45:44.318Z,1002.6
2017-09-19T03:46:45.706Z,1002.7
2017-09-19T03:47:47.094Z,1002.6
2017-09-19T03:48:48.482Z,1002.7
2017-09-19T03:49:49.870Z,1002.7
2017-09-19T03:50:51.258Z,1002.7
2017-09-19T03:51:52.648Z,1002.6
2017-09-19T03:52:54.038Z,1002.6
2017-09-19T03:53:55.422Z,1002.7
2017-09-19T03:54:56.812Z,1002.6
2017-09-19T03:55:58.197Z,1002.6
2017-09-19T03:56:59.588Z,1002.6
2017-09-19T03:58:00.980Z,1002.7
2017-09-19T03:59:02.368Z,1002.6
2017-09-19T04:00:03.760Z,1002.6
2017-09-19T04:01:05.143Z,1002.6
2017-09-19T04:02:06.533Z,1002.6
2017-09-19T04:03:07.919Z,1002.7
2017-09-19T04:04:09.308Z,1002.7
2017-09-19T04:05:10.697Z,1002.6
2017-09-19T04:06:12.089Z,1002.7
2017-09-19T04:07:13.477Z,1002.7
2017-09-19T04:08:14.866Z,1002.7
2017-09-19T04:09:16.251Z,1002.7
2017-09-19T04:10:17.639Z,1002.6
2017-09-19T04:11:19.026Z,1002.6
2017-09-19T04:12:20.413Z,1002.7
2017-09-19T04:13:21.807Z,1002.7
2017-09-19T04:14:23.192Z,1002.7
2017-09-19T04:15:24.578Z,1002.7
2017-09-19T04:16:25.972Z,1002.7
2017-09-19T04:17:27.360Z,1002.7
2017-09-19T04:18:28.750Z,1002.7
2017-09-19T04:19:30.141Z,1002.6
2017-09-19T04:20:31.531Z,1002.7
2017-09-19T04:21:32.921Z,1002.7
2017-09-19T04:22:34.308Z,1002.7
2017-09-19T04:23:35.694Z,1002.7
2017-09-19T04:24:37.084Z,1002.7
2017-09-19T04:25:38.475Z,1002.7
2017-09-19T04:26:39.872Z,1002.7
2017-09-19T04:27:41.257Z,1002.7
2017-09-19T04:28:42.645Z,1002.7
2017-09-19T04:29:44.038Z,1002.7
2017-09-19T04:30:45.425Z,1002.8
2017-09-19T04:31:46.813Z,1002.8
2017-09-19T04:32:48.204Z,1002.8
2017-09-19T04:33:49.592Z,1002.8
2017-09-19T04:34:50.983Z,1002.7
2017-09-19T04:35:52.369Z,1002.8
2017-09-19T04:36:53.756Z,1002.8
2017-09-19T04:37:55.142Z,1002.9
2017-09-19T04:38:56.537Z,1002.9
2017-09-19T04:39:57.925Z,1002.8
2017-09-19T04:40:59.327Z,1002.9
2017-09-19T04:42:00.704Z,1002.9
2017-09-19T04:43:02.091Z,1002.9
2017-09-19T04:44:03.479Z,1002.9
2017-09-19T04:45:04.869Z,1002.9
2017-09-19T04:46:06.256Z,1002.9
2017-09-19T04:47:07.642Z,1002.9
2017-09-19T04:48:09.036Z,1002.9
2017-09-19T04:49:10.425Z,1002.9
2017-09-19T04:50:11.818Z,1002.9
2017-09-19T04:51:13.205Z,1002.9
2017-09-19T04:52:14.587Z,1002.9
2017-09-19T04:53:15.975Z,1003.0
2017-09-19T04:54:17.365Z,1002.9
2017-09-19T04:55:18.754Z,1002.9
2017-09-19T04:56:20.141Z,1002.9
2017-09-19T04:57:21.528Z,1003.0
2017-09-19T04:58:22.877Z,1003.0
2017-09-19T04:59:24.263Z,1002.9
2017-09-19T05:00:25.653Z,1003.0
2017-09-19T05:01:27.043Z,1003.0
2017-09-19T05:02:28.435Z,1003.0
2017-09-19T05:03:29.825Z,1003.0
2017-09-19T05:04:31.211Z,1003.0
2017-09-19T05:05:32.597Z,1003.0
2017-09-19T05:06:33.985Z,1003.1
2017-09-19T05:07:35.377Z,1003.0
2017-09-19T05:08:36.766Z,1003.0
2017-09-19T05:09:38.154Z,1003.0
2017-09-19T05:10:39.544Z,1003.1
2017-09-19T05:11:40.932Z,1003.1
2017-09-19T05:12:42.319Z,1003.1
2017-09-19T05:13:43.712Z,1003.1
2017-09-19T05:14:45.104Z,1003.1
2017-09-19T05:15:46.493Z,1003.1
2017-09-19T05:16:47.885Z,1003.1
2017-09-19T05:17:49.277Z,1003.1
2017-09-19T05:18:50.663Z,1003.2
2017-09-19T05:19:52.059Z,1003.1
2017-09-19T05:20:53.507Z,1003.2
2017-09-19T05:21:54.894Z,1003.2
2017-09-19T05:22:56.300Z,1003.2
2017-09-19T05:23:57.690Z,1003.2
2017-09-19T05:24:59.078Z,1003.1
2017-09-19T05:26:00.466Z,1003.2
2017-09-19T05:27:01.857Z,1003.3
2017-09-19T05:28:03.244Z,1003.3
2017-09-19T05:29:04.633Z,1003.2
2017-09-19T05:30:06.023Z,1003.2
2017-09-19T05:31:07.413Z,1003.2
2017-09-19T05:32:08.801Z,1003.2
2017-09-19T05:33:10.192Z,1003.2
2017-09-19T05:34:11.580Z,1003.3
2017-09-19T05:35:12.970Z,1003.2
2017-09-19T05:36:14.359Z,1003.3
2017-09-19T05:37:15.750Z,1003.3
2017-09-19T05:38:17.140Z,1003.2
2017-09-19T05:39:18.530Z,1003.2
2017-09-19T05:40:19.919Z,1003.2
2017-09-19T05:41:21.305Z,1003.2
2017-09-19T05:42:22.696Z,1003.2
2017-09-19T05:43:24.086Z,1003.2
2017-09-19T05:44:25.479Z,1003.2
2017-09-19T05:45:26.898Z,1003.2
2017-09-19T05:46:28.315Z,1003.3
2017-09-19T05:47:29.672Z,1003.3
2017-09-19T05:48:31.057Z,1003.3
2017-09-19T05:49:32.448Z,1003.3
2017-09-19T05:50:33.845Z,1003.3
2017-09-19T05:51:35.230Z,1003.3
2017-09-19T05:52:36.622Z,1003.3
2017-09-19T05:53:38.015Z,1003.3
2017-09-19T05:54:39.403Z,1003.3
2017-09-19T05:55:40.790Z,1003.3
2017-09-19T05:56:42.180Z,1003.3
2017-09-19T05:57:43.569Z,1003.3
2017-09-19T05:58:44.961Z,1003.4
2017-09-19T05:59:46.354Z,1003.4
2017-09-19T06:00:47.749Z,1003.4
2017-09-19T06:01:49.138Z,1003.4
2017-09-19T06:02:50.535Z,1003.4
2017-09-19T06:03:51.925Z,1003.4
2017-09-19T06:04:53.317Z,1003.3
2017-09-19T06:05:54.712Z,1003.4
2017-09-19T06:06:56.101Z,1003.4
2017-09-19T06:07:57.497Z,1003.4
2017-09-19T06:08:58.886Z,1003.4
2017-09-19T06:10:00.276Z,1003.3
2017-09-19T06:11:01.876Z,1003.4
2017-09-19T06:12:03.316Z,1003.4
2017-09-19T06:13:04.707Z,1003.4
2017-09-19T06:14:06.102Z,1003.4
2017-09-19T06:15:07.493Z,1003.4
2017-09-19T06:16:08.882Z,1003.5
2017-09-19T06:17:10.275Z,1003.4
2017-09-19T06:18:11.671Z,1003.5
2017-09-19T06:19:13.057Z,1003.5
2017-09-19T06:20:14.448Z,1003.5
2017-09-19T06:21:15.844Z,1003.5
2017-09-19T06:22:17.233Z,1003.5
2017-09-19T06:23:18.623Z,1003.5
2017-09-19T06:24:20.017Z,1003.5
2017-09-19T06:25:21.408Z,1003.5
2017-09-19T06:26:22.806Z,1003.4
2017-09-19T06:27:24.191Z,1003.5
2017-09-19T06:28:25.583Z,1003.5
2017-09-19T06:29:26.975Z,1003.5
2017-09-19T06:30:28.364Z,1003.5
2017-09-19T06:31:29.754Z,1003.5
2017-09-19T06:32:31.146Z,1003.5
2017-09-19T06:33:32.539Z,1003.5
2017-09-19T06:34:33.931Z,1003.5
2017-09-19T06:35:35.321Z,1003.5
2017-09-19T06:36:36.715Z,1003.5
2017-09-19T06:37:38.103Z,1003.6
2017-09-19T06:38:39.493Z,1003.6
2017-09-19T06:39:40.887Z,1003.5
2017-09-19T06:40:42.278Z,1003.6
2017-09-19T06:41:43.670Z,1003.6
2017-09-19T06:42:45.065Z,1003.6
2017-09-19T06:43:46.459Z,1003.6
2017-09-19T06:44:47.850Z,1003.6
2017-09-19T06:45:49.241Z,1003.6
2017-09-19T06:46:50.631Z,1003.6
2017-09-19T06:47:52.023Z,1003.6
2017-09-19T06:48:53.416Z,1003.6
2017-09-19T06:49:54.808Z,1003.6
2017-09-19T06:50:56.200Z,1003.6
2017-09-19T06:51:57.590Z,1003.6
2017-09-19T06:52:58.985Z,1003.6
2017-09-19T06:54:00.377Z,1003.6
2017-09-19T06:55:01.781Z,1003.6
2017-09-19T06:56:03.164Z,1003.6
2017-09-19T06:57:04.555Z,1003.6
2017-09-19T06:58:05.947Z,1003.7
2017-09-19T06:59:07.340Z,1003.7
2017-09-19T07:00:08.746Z,1003.7
2017-09-19T07:01:10.135Z,1003.7
2017-09-19T07:02:11.526Z,1003.7
2017-09-19T07:03:12.922Z,1003.7
2017-09-19T07:04:14.315Z,1003.7
2017-09-19T07:05:15.710Z,1003.8
2017-09-19T07:06:17.140Z,1003.8
2017-09-19T07:07:18.528Z,1003.8
2017-09-19T07:08:19.916Z,1003.8
2017-09-19T07:09:21.311Z,1003.8
2017-09-19T07:10:22.701Z,1003.8
2017-09-19T07:11:24.097Z,1003.9
2017-09-19T07:12:25.490Z,1003.9
2017-09-19T07:13:26.883Z,1003.9
2017-09-19T07:14:28.275Z,1003.9
2017-09-19T07:15:29.664Z,1003.9
2017-09-19T07:16:31.056Z,1003.9
2017-09-19T07:17:32.449Z,1003.9
2017-09-19T07:18:33.840Z,1003.9
2017-09-19T07:19:35.235Z,1004.0
2017-09-19T07:20:36.626Z,1004.0
2017-09-19T07:21:38.016Z,1004.0
2017-09-19T07:22:39.410Z,1003.9
2017-09-19T07:23:40.800Z,1004.0
2017-09-19T07:24:42.190Z,1004.0
2017-09-19T07:25:43.584Z,1004.0
2017-09-19T07:26:44.975Z,1004.0
2017-09-19T07:27:46.364Z,1004.0
2017-09-19T07:28:47.755Z,1004.0
2017-09-19T07:29:49.146Z,1004.0
2017-09-19T07:30:50.540Z,1004.1
2017-09-19T07:31:51.930Z,1004.1
2017-09-19T07:32:53.324Z,1004.1
2017-09-19T07:33:54.715Z,1004.1
2017-09-19T07:34:56.109Z,1004.1
2017-09-19T07:35:57.496Z,1004.1
2017-09-19T07:36:58.890Z,1004.1
2017-09-19T07:38:00.281Z,1004.1
2017-09-19T07:39:01.672Z,1004.1
2017-09-19T07:40:03.068Z,1004.1
2017-09-19T07:41:04.461Z,1004.1
2017-09-19T07:42:05.851Z,1004.2
2017-09-19T07:43:07.240Z,1004.2
2017-09-19T07:44:08.631Z,1004.2
2017-09-19T07:45:10.028Z,1004.3
2017-09-19T07:46:11.419Z,1004.2
2017-09-19T07:47:12.814Z,1004.2
2017-09-19T07:48:14.206Z,1004.3
2017-09-19T07:49:15.596Z,1004.3
2017-09-19T07:50:16.990Z,1004.2
2017-09-19T07:51:18.380Z,1004.3
2017-09-19T07:52:19.774Z,1004.3
2017-09-19T07:53:21.167Z,1004.3
2017-09-19T07:54:22.595Z,1004.3
2017-09-19T07:55:24.007Z,1004.3
2017-09-19T07:56:25.399Z,1004.3
2017-09-19T07:57:26.793Z,1004.3
2017-09-19T07:58:28.187Z,1004.3
2017-09-19T07:59:29.581Z,1004.3
2017-09-19T08:00:30.976Z,1004.3
2017-09-19T08:01:32.371Z,1004.3
2017-09-19T08:02:33.765Z,1004.4
2017-09-19T08:03:35.158Z,1004.3
2017-09-19T08:04:36.552Z,1004.3
2017-09-19T08:05:37.943Z,1004.3
2017-09-19T08:06:39.336Z,1004.3
2017-09-19T08:07:40.730Z,1004.3
2017-09-19T08:08:42.126Z,1004.3
2017-09-19T08:09:43.519Z,1004.3
2017-09-19T08:10:44.911Z,1004.3
2017-09-19T08:11:46.305Z,1004.4
2017-09-19T08:12:47.699Z,1004.3
2017-09-19T08:13:49.100Z,1004.4
2017-09-19T08:14:50.487Z,1004.4
2017-09-19T08:15:51.878Z,1004.3
2017-09-19T08:16:53.272Z,1004.3
2017-09-19T08:17:54.663Z,1004.4
2017-09-19T08:18:56.055Z,1004.5
2017-09-19T08:19:57.444Z,1004.4
2017-09-19T08:20:58.837Z,1004.4
2017-09-19T08:22:00.229Z,1004.4
2017-09-19T08:23:01.627Z,1004.4
2017-09-19T08:24:03.017Z,1004.4
2017-09-19T08:25:04.410Z,1004.5
2017-09-19T08:26:05.799Z,1004.5
2017-09-19T08:27:07.191Z,1004.5
2017-09-19T08:28:08.590Z,1004.4
2017-09-19T08:29:09.977Z,1004.5
2017-09-19T08:30:11.368Z,1004.5
2017-09-19T08:31:12.764Z,1004.5
2017-09-19T08:32:14.156Z,1004.5
2017-09-19T08:33:15.547Z,1004.5
2017-09-19T08:34:16.943Z,1004.5
2017-09-19T08:35:18.334Z,1004.5
2017-09-19T08:36:19.728Z,1004.6
2017-09-19T08:37:21.131Z,1004.6
2017-09-19T08:38:22.519Z,1004.5
2017-09-19T08:39:23.911Z,1004.6
2017-09-19T08:40:25.303Z,1004.6
2017-09-19T08:41:26.699Z,1004.6
2017-09-19T08:42:28.091Z,1004.6
2017-09-19T08:43:29.483Z,1004.7
2017-09-19T08:44:30.880Z,1004.6
2017-09-19T08:45:32.341Z,1004.7
2017-09-19T08:46:33.749Z,1004.7
2017-09-19T08:47:35.176Z,1004.8
2017-09-19T08:48:36.571Z,1004.7
2017-09-19T08:49:37.960Z,1004.7
2017-09-19T08:50:39.353Z,1004.8
2017-09-19T08:51:40.745Z,1004.7
2017-09-19T08:52:42.138Z,1004.7
2017-09-19T08:53:43.531Z,1004.8
2017-09-19T08:54:44.929Z,1004.7
2017-09-19T08:55:46.320Z,1004.7
2017-09-19T08:56:47.713Z,1004.8
2017-09-19T08:57:49.111Z,1004.8
2017-09-19T08:58:50.501Z,1004.7
2017-09-19T08:59:51.895Z,1004.8
2017-09-19T09:00:53.288Z,1004.8
2017-09-19T09:01:54.679Z,1004.8
2017-09-19T09:02:56.070Z,1004.8
2017-09-19T09:03:57.466Z,1004.8
2017-09-19T09:04:58.865Z,1004.9
2017-09-19T09:06:00.258Z,1004.8
2017-09-19T09:07:01.653Z,1004.8
2017-09-19T09:08:03.042Z,1004.9
2017-09-19T09:09:04.434Z,1004.9
2017-09-19T09:10:05.825Z,1004.9
2017-09-19T09:11:07.221Z,1004.9
2017-09-19T09:12:08.616Z,1004.9
2017-09-19T09:13:10.007Z,1004.9
2017-09-19T09:14:11.401Z,1004.9
2017-09-19T09:15:12.791Z,1004.9
2017-09-19T09:16:14.182Z,1004.9
2017-09-19T09:17:15.577Z,1005.0
2017-09-19T09:18:16.971Z,1004.9
2017-09-19T09:19:18.367Z,1005.0
2017-09-19T09:20:19.761Z,1005.0
2017-09-19T09:21:21.160Z,1005.0
2017-09-19T09:22:24.287Z,1005.0
2017-09-19T09:23:25.682Z,1004.9
2017-09-19T09:24:27.074Z,1005.0
2017-09-19T09:25:28.469Z,1005.0
2017-09-19T09:26:29.862Z,1005.0
2017-09-19T09:27:31.260Z,1005.0
2017-09-19T09:28:32.660Z,1005.0
2017-09-19T09:29:34.046Z,1005.0
2017-09-19T09:30:35.442Z,1005.0
2017-09-19T09:31:36.837Z,1005.0
2017-09-19T09:32:38.235Z,1005.0
2017-09-19T09:33:39.661Z,1005.0
2017-09-19T09:34:41.062Z,1005.0
2017-09-19T09:35:42.452Z,1005.0
2017-09-19T09:36:43.844Z,1005.0
2017-09-19T09:37:45.244Z,1005.0
2017-09-19T09:38:46.636Z,1005.0
2017-09-19T09:39:48.030Z,1005.1
2017-09-19T09:40:49.427Z,1005.0
2017-09-19T09:41:50.822Z,1005.0
2017-09-19T09:42:52.217Z,1005.0
2017-09-19T09:43:53.608Z,1005.0
2017-09-19T09:44:55.006Z,1005.1
2017-09-19T09:45:56.402Z,1005.0
2017-09-19T09:46:57.795Z,1005.0
2017-09-19T09:47:59.192Z,1005.0
2017-09-19T09:49:00.587Z,1005.0
2017-09-19T09:50:01.984Z,1005.0
2017-09-19T09:51:03.385Z,1005.1
2017-09-19T09:52:04.775Z,1005.1
2017-09-19T09:53:06.174Z,1005.0
2017-09-19T09:54:07.562Z,1005.0
2017-09-19T09:55:08.957Z,1005.0
2017-09-19T09:56:10.355Z,1005.1
2017-09-19T09:57:11.757Z,1005.1
2017-09-19T09:58:13.152Z,1005.1
2017-09-19T09:59:14.545Z,1005.1
2017-09-19T10:00:15.940Z,1005.1
2017-09-19T10:01:17.334Z,1005.1
2017-09-19T10:02:18.728Z,1005.1
2017-09-19T10:03:20.126Z,1005.1
2017-09-19T10:04:21.525Z,1005.1
2017-09-19T10:05:22.915Z,1005.1
2017-09-19T10:06:24.364Z,1005.1
2017-09-19T10:07:25.760Z,1005.1
2017-09-19T10:08:27.154Z,1005.1
2017-09-19T10:09:28.549Z,1005.1
2017-09-19T10:10:29.945Z,1005.1
2017-09-19T10:11:31.338Z,1005.1
2017-09-19T10:12:32.733Z,1005.2
2017-09-19T10:13:34.125Z,1005.2
2017-09-19T10:14:35.519Z,1005.2
2017-09-19T10:15:36.915Z,1005.2
2017-09-19T10:16:38.309Z,1005.2
2017-09-19T10:17:39.707Z,1005.2
2017-09-19T10:18:41.102Z,1005.2
2017-09-19T10:19:42.495Z,1005.2
2017-09-19T10:20:43.890Z,1005.2
2017-09-19T10:21:45.288Z,1005.2
2017-09-19T10:22:46.684Z,1005.2
2017-09-19T10:23:48.078Z,1005.2
2017-09-19T10:24:49.472Z,1005.2
2017-09-19T10:25:50.868Z,1005.2
2017-09-19T10:26:52.272Z,1005.2
2017-09-19T10:27:53.662Z,1005.2
2017-09-19T10:28:55.053Z,1005.2
2017-09-19T10:29:56.447Z,1005.3
2017-09-19T10:30:57.844Z,1005.2
2017-09-19T10:31:59.241Z,1005.2
2017-09-19T10:33:00.639Z,1005.3
2017-09-19T10:34:02.030Z,1005.3
2017-09-19T10:35:03.426Z,1005.3
2017-09-19T10:36:04.817Z,1005.3
2017-09-19T10:37:06.212Z,1005.3
2017-09-19T10:38:07.610Z,1005.3
2017-09-19T10:39:09.006Z,1005.2
2017-09-19T10:40:10.406Z,1005.2
2017-09-19T10:41:11.801Z,1005.2
2017-09-19T10:42:13.197Z,1005.3
2017-09-19T10:43:14.592Z,1005.3
2017-09-19T10:44:15.986Z,1005.3
2017-09-19T10:45:17.383Z,1005.3
2017-09-19T10:46:18.786Z,1005.3
2017-09-19T10:47:20.177Z,1005.3
2017-09-19T10:48:21.569Z,1005.3
2017-09-19T10:49:22.965Z,1005.3
2017-09-19T10:50:24.361Z,1005.3
2017-09-19T10:51:25.756Z,1005.3
2017-09-19T10:52:27.148Z,1005.3
2017-09-19T10:53:28.546Z,1005.3
2017-09-19T10:54:29.942Z,1005.4
2017-09-19T10:55:31.335Z,1005.4
2017-09-19T10:56:32.728Z,1005.4
2017-09-19T10:57:34.121Z,1005.4
2017-09-19T10:58:35.517Z,1005.4
2017-09-19T10:59:36.912Z,1005.5
2017-09-19T11:00:38.310Z,1005.5
2017-09-19T11:01:39.704Z,1005.4
2017-09-19T11:02:41.098Z,1005.5
2017-09-19T11:03:42.492Z,1005.5
2017-09-19T11:04:43.888Z,1005.5
2017-09-19T11:05:45.284Z,1005.5
2017-09-19T11:06:46.677Z,1005.5
2017-09-19T11:07:48.077Z,1005.5
2017-09-19T11:08:49.476Z,1005.5
2017-09-19T11:09:50.868Z,1005.5
2017-09-19T11:10:52.261Z,1005.5
2017-09-19T11:11:53.666Z,1005.5
2017-09-19T11:12:55.071Z,1005.6
2017-09-19T11:13:56.478Z,1005.6
2017-09-19T11:14:57.863Z,1005.6
2017-09-19T11:15:59.257Z,1005.6
2017-09-19T11:17:00.731Z,1005.6
2017-09-19T11:18:02.131Z,1005.6
2017-09-19T11:19:03.523Z,1005.6
2017-09-19T11:20:04.921Z,1005.6
2017-09-19T11:21:06.317Z,1005.6
2017-09-19T11:22:07.712Z,1005.6
2017-09-19T11:23:09.112Z,1005.6
2017-09-19T11:24:10.503Z,1005.6
2017-09-19T11:25:11.895Z,1005.6
2017-09-19T11:26:13.289Z,1005.6
2017-09-19T11:27:14.708Z,1005.6
2017-09-19T11:28:16.101Z,1005.7
2017-09-19T11:29:17.502Z,1005.7
2017-09-19T11:30:18.894Z,1005.6
2017-09-19T11:31:20.288Z,1005.7
2017-09-19T11:32:21.682Z,1005.7
2017-09-19T11:33:23.072Z,1005.6
2017-09-19T11:34:24.467Z,1005.6
2017-09-19T11:35:25.864Z,1005.6
2017-09-19T11:36:27.257Z,1005.7
2017-09-19T11:37:28.656Z,1005.7
2017-09-19T11:38:30.049Z,1005.7
2017-09-19T11:39:31.445Z,1005.6
2017-09-19T11:40:32.840Z,1005.7
2017-09-19T11:41:34.233Z,1005.7
2017-09-19T11:42:35.632Z,1005.7
2017-09-19T11:43:37.029Z,1005.7
2017-09-19T11:44:38.423Z,1005.7
2017-09-19T11:45:39.815Z,1005.7
2017-09-19T11:46:41.211Z,1005.7
2017-09-19T11:47:42.605Z,1005.7
2017-09-19T11:48:44.000Z,1005.8
2017-09-19T11:49:45.397Z,1005.7
2017-09-19T11:50:46.791Z,1005.8
2017-09-19T11:51:48.189Z,1005.7
2017-09-19T11:52:49.578Z,1005.8
2017-09-19T11:53:50.972Z,1005.8
2017-09-19T11:54:52.370Z,1005.8
2017-09-19T11:55:53.763Z,1005.8
2017-09-19T11:56:55.156Z,1005.9
2017-09-19T11:57:56.553Z,1005.9
2017-09-19T11:58:57.950Z,1005.9
2017-09-19T11:59:59.343Z,1005.9
2017-09-19T12:01:00.735Z,1005.9
2017-09-19T12:02:02.147Z,1005.9
2017-09-19T12:03:03.556Z,1005.9
2017-09-19T12:04:04.953Z,1005.9
2017-09-19T12:05:06.348Z,1005.9
2017-09-19T12:06:07.744Z,1005.9
2017-09-19T12:07:09.136Z,1005.9
2017-09-19T12:08:10.532Z,1005.9
2017-09-19T12:09:11.925Z,1005.9
2017-09-19T12:10:13.355Z,1005.9
2017-09-19T12:11:14.753Z,1005.9
2017-09-19T12:12:16.149Z,1005.9
2017-09-19T12:13:17.550Z,1006.0
2017-09-19T12:14:18.939Z,1005.9
2017-09-19T12:15:20.335Z,1006.0
2017-09-19T12:16:21.729Z,1006.0
2017-09-19T12:17:23.123Z,1006.0
2017-09-19T12:18:24.521Z,1005.9
2017-09-19T12:19:25.916Z,1005.9
2017-09-19T12:20:27.314Z,1005.9
2017-09-19T12:21:28.705Z,1005.9
2017-09-19T12:22:30.102Z,1005.9
2017-09-19T12:23:31.496Z,1005.9
2017-09-19T12:24:32.891Z,1005.9
2017-09-19T12:25:34.288Z,1005.9
2017-09-19T12:26:35.684Z,1005.9
2017-09-19T12:27:37.083Z,1005.9
2017-09-19T12:28:38.479Z,1005.9
2017-09-19T12:29:39.871Z,1005.8
2017-09-19T12:30:41.267Z,1005.8
2017-09-19T12:31:42.665Z,1005.9
2017-09-19T12:32:44.062Z,1005.8
2017-09-19T12:33:45.462Z,1005.8
2017-09-19T12:34:46.859Z,1005.9
2017-09-19T12:35:48.253Z,1005.9
2017-09-19T12:36:49.650Z,1005.9
2017-09-19T12:37:51.049Z,1006.0
2017-09-19T12:38:52.446Z,1006.0
2017-09-19T12:39:53.845Z,1006.0
2017-09-19T12:40:55.243Z,1006.0
2017-09-19T12:41:56.642Z,1006.0
2017-09-19T12:42:58.040Z,1006.0
2017-09-19T12:43:59.434Z,1006.0
2017-09-19T12:45:00.831Z,1006.0
2017-09-19T12:46:02.231Z,1006.0